North Newton, Kansas
Current Conditions -  °F | °C
As of 9:55 PM on Friday 24 Oct 2014 (Local Time) from KEWK Reporting Station
Clear Clear  
Wind Chill: 68°   Ceiling: Unl
Heat Index: 68°   Visibility: 10mi
Dew Point: 57°   Wind: 9mph
Humidity: 68%   Direction: 220°SW
Pressure: 30.04"   Gusts: NA
Location:  38.07°N, 97.35°W
Report Text: KEWK 250255Z AUTO 22008KT 10SM CLR 20/14 A3004 RMK AO1 52010
Loading
Personal Weather Stations






























Interactive Weather Map
Tropical Storm Tracking
New forecast layout! Learn more

10-Day Weather Forecast

Advertisements
Track Severe Weather on mobile